地図

経路データ

SID SEASON NUMBER BASIN SUBBASIN NAME ISO_TIME NATURE LAT LON WMO_WIND WMO_PRES WMO_AGENCY TRACK_TYPE DIST2LAND LANDFALL IFLAG USA_AGENCY USA_ATCF_ID USA_LAT USA_LON USA_RECORD USA_STATUS USA_WIND USA_PRES USA_SSHS USA_R34_NE USA_R34_SE USA_R34_SW USA_R34_NW USA_R50_NE USA_R50_SE USA_R50_SW USA_R50_NW USA_R64_NE USA_R64_SE USA_R64_SW USA_R64_NW USA_POCI USA_ROCI USA_RMW USA_EYE TOKYO_LAT TOKYO_LON TOKYO_GRADE TOKYO_WIND TOKYO_PRES TOKYO_R50_DIR TOKYO_R50_LONG TOKYO_R50_SHORT TOKYO_R30_DIR TOKYO_R30_LONG TOKYO_R30_SHORT TOKYO_LAND CMA_LAT CMA_LON CMA_CAT CMA_WIND CMA_PRES HKO_LAT HKO_LON HKO_CAT HKO_WIND HKO_PRES NEWDELHI_LAT NEWDELHI_LON NEWDELHI_GRADE NEWDELHI_WIND NEWDELHI_PRES NEWDELHI_CI NEWDELHI_DP NEWDELHI_POCI REUNION_LAT REUNION_LON REUNION_TYPE REUNION_WIND REUNION_PRES REUNION_TNUM REUNION_CI REUNION_RMW REUNION_R34_NE REUNION_R34_SE REUNION_R34_SW REUNION_R34_NW REUNION_R50_NE REUNION_R50_SE REUNION_R50_SW REUNION_R50_NW REUNION_R64_NE REUNION_R64_SE REUNION_R64_SW REUNION_R64_NW BOM_LAT BOM_LON BOM_TYPE BOM_WIND BOM_PRES BOM_TNUM BOM_CI BOM_RMW BOM_R34_NE BOM_R34_SE BOM_R34_SW BOM_R34_NW BOM_R50_NE BOM_R50_SE BOM_R50_SW BOM_R50_NW BOM_R64_NE BOM_R64_SE BOM_R64_SW BOM_R64_NW BOM_ROCI BOM_POCI BOM_EYE BOM_POS_METHOD BOM_PRES_METHOD NADI_LAT NADI_LON NADI_CAT NADI_WIND NADI_PRES WELLINGTON_LAT WELLINGTON_LON WELLINGTON_WIND WELLINGTON_PRES DS824_LAT DS824_LON DS824_STAGE DS824_WIND DS824_PRES TD9636_LAT TD9636_LON TD9636_STAGE TD9636_WIND TD9636_PRES TD9635_LAT TD9635_LON TD9635_WIND TD9635_PRES TD9635_ROCI NEUMANN_LAT NEUMANN_LON NEUMANN_CLASS NEUMANN_WIND NEUMANN_PRES MLC_LAT MLC_LON MLC_CLASS MLC_WIND MLC_PRES USA_GUST BOM_GUST BOM_GUST_PER REUNION_GUST REUNION_GUST_PER USA_SEAHGT USA_SEARAD_NE USA_SEARAD_SE USA_SEARAD_SW USA_SEARAD_NW STORM_SPEED STORM_DIR
1941244N11139 1941 51 WP MM NOT_NAMED 1941-09-01 00:00:00 NR 11.0000 138.800 main 1357 1353 __________O___ -1 11.0000 138.800 3 18 326
1941244N11139 1941 51 WP MM NOT_NAMED 1941-09-01 03:00:00 NR 11.7489 138.291 main 1353 1316 __________P___ -1 11.7489 138.291 3 18 326
1941244N11139 1941 51 WP MM NOT_NAMED 1941-09-01 06:00:00 NR 12.4680 137.775 main 1317 1271 __________P___ -1 12.4680 137.775 3 17 323
1941244N11139 1941 51 WP MM NOT_NAMED 1941-09-01 09:00:00 NR 13.1281 137.246 main 1262 1222 __________P___ -1 13.1281 137.246 3 16 320
1941244N11139 1941 51 WP MM NOT_NAMED 1941-09-01 12:00:00 NR 13.7000 136.700 main 1222 1178 __________O___ -1 13.7000 136.700 4 15 314
1941244N11139 1941 51 WP MM NOT_NAMED 1941-09-01 15:00:00 NR 14.1622 136.138 main 1169 1123 __________P___ -1 14.1622 136.138 4 14 307
1941244N11139 1941 51 WP MM NOT_NAMED 1941-09-01 18:00:00 NR 14.5226 135.582 main 1123 1078 __________P___ -1 14.5226 135.582 4 12 301
1941244N11139 1941 51 WP MM NOT_NAMED 1941-09-01 21:00:00 NR 14.7967 135.060 main 1078 1032 __________P___ -1 14.7967 135.060 4 11 297
1941244N11139 1941 51 WP MM NOT_NAMED 1941-09-02 00:00:00 NR 15.0000 134.600 main 1032 1005 __________O___ -1 15.0000 134.600 4 9 295
1941244N11139 1941 51 WP MM NOT_NAMED 1941-09-02 03:00:00 NR 15.1680 134.243 main 998 978 __________P___ -1 15.1680 134.243 4 7 293
1941244N11139 1941 51 WP MM NOT_NAMED 1941-09-02 06:00:00 NR 15.2740 133.946 main 971 951 __________P___ -1 15.2740 133.946 4 6 288
1941244N11139 1941 51 WP MM NOT_NAMED 1941-09-02 09:00:00 NR 15.3431 133.677 main 951 925 __________P___ -1 15.3431 133.677 4 5 283
1941244N11139 1941 51 WP MM NOT_NAMED 1941-09-02 12:00:00 NR 15.4000 133.400 main 925 900 __________O___ -1 15.4000 133.400 4 6 282
1941244N11139 1941 51 WP MM NOT_NAMED 1941-09-02 15:00:00 NR 15.4740 133.064 main 900 860 __________P___ -1 15.4740 133.064 4 7 282
1941244N11139 1941 51 WP MM NOT_NAMED 1941-09-02 18:00:00 NR 15.5424 132.715 main 860 836 __________P___ -1 15.5424 132.715 4 7 282
1941244N11139 1941 51 WP MM NOT_NAMED 1941-09-02 21:00:00 NR 15.6146 132.358 main 836 803 __________P___ -1 15.6146 132.358 4 7 283
1941244N11139 1941 51 WP MM NOT_NAMED 1941-09-03 00:00:00 NR 15.7000 132.000 main 803 781 __________O___ -1 15.7000 132.000 4 7 286
1941244N11139 1941 51 WP MM NOT_NAMED 1941-09-03 03:00:00 NR 15.8104 131.654 main 781 750 __________P___ -1 15.8104 131.654 4 7 289
1941244N11139 1941 51 WP MM NOT_NAMED 1941-09-03 06:00:00 NR 15.9347 131.307 main 750 730 __________P___ -1 15.9347 131.307 4 7 291
1941244N11139 1941 51 WP MM NOT_NAMED 1941-09-03 09:00:00 NR 16.0666 130.957 main 736 709 __________P___ -1 16.0666 130.957 4 7 291
1941244N11139 1941 51 WP MM NOT_NAMED 1941-09-03 12:00:00 NR 16.2000 130.600 main 709 678 __________O___ -1 16.2000 130.600 4 8 289
1941244N11139 1941 51 WP MM NOT_NAMED 1941-09-03 15:00:00 NR 16.3170 130.208 main 678 643 __________P___ -1 16.3170 130.208 4 8 287
1941244N11139 1941 51 WP MM NOT_NAMED 1941-09-03 18:00:00 NR 16.4352 129.812 main 643 619 __________P___ -1 16.4352 129.812 4 8 288
1941244N11139 1941 51 WP MM NOT_NAMED 1941-09-03 21:00:00 NR 16.5608 129.436 main 615 593 __________P___ -1 16.5608 129.436 4 7 291
1941244N11139 1941 51 WP MM NOT_NAMED 1941-09-04 00:00:00 NR 16.7000 129.100 main 593 572 __________O___ -1 16.7000 129.100 4 7 296
1941244N11139 1941 51 WP MM NOT_NAMED 1941-09-04 03:00:00 NR 16.8441 128.824 main 572 568 __________P___ -1 16.8441 128.824 4 6 302
1941244N11139 1941 51 WP MM NOT_NAMED 1941-09-04 06:00:00 NR 17.0046 128.590 main 568 558 __________P___ -1 17.0046 128.590 4 5 309
1941244N11139 1941 51 WP MM NOT_NAMED 1941-09-04 09:00:00 NR 17.1879 128.386 main 565 557 __________P___ -1 17.1879 128.386 4 5 317
1941244N11139 1941 51 WP MM NOT_NAMED 1941-09-04 12:00:00 NR 17.4000 128.200 main 564 564 __________O___ -1 17.4000 128.200 4 6 323
1941244N11139 1941 51 WP MM NOT_NAMED 1941-09-04 15:00:00 NR 17.6445 128.021 main 564 564 __________P___ -1 17.6445 128.021 4 6 327
1941244N11139 1941 51 WP MM NOT_NAMED 1941-09-04 18:00:00 NR 17.9152 127.846 main 571 564 __________P___ -1 17.9152 127.846 4 7 329
1941244N11139 1941 51 WP MM NOT_NAMED 1941-09-04 21:00:00 NR 18.2033 127.672 main 567 548 __________P___ -1 18.2033 127.672 4 7 331
1941244N11139 1941 51 WP MM NOT_NAMED 1941-09-05 00:00:00 NR 18.5000 127.500 main 548 __________O___ -1 18.5000 127.500 4 7 331

デジタル台風データ・検索

IBTrACS Databaseについて

本データベースは、米国NOAAが公開する1842年以降の世界の熱帯低気圧のベストトラックデータアーカイブInternational Best Track Archive for Climate Stewardship (IBTrACS)を、ウェブで閲覧しやすい形式に変換したものです。

最終更新日:2021-10-08